sensor_id;sensor_type;location;lat;lon;timestamp;pressure;altitude;pressure_sealevel;temperature;humidity
63916;BME280;50094;51.356;-0.196;2022-10-17T00:00:14;100183.86;;;28.89;45.55
63916;BME280;50094;51.356;-0.196;2022-10-17T00:02:42;100182.53;;;28.93;45.39
63916;BME280;50094;51.356;-0.196;2022-10-17T00:05:09;100189.07;;;28.92;45.31
63916;BME280;50094;51.356;-0.196;2022-10-17T00:07:37;100195.41;;;29.01;45.06
63916;BME280;50094;51.356;-0.196;2022-10-17T00:10:06;100204.64;;;29.04;44.97
63916;BME280;50094;51.356;-0.196;2022-10-17T00:12:33;100197.79;;;29.06;44.84
63916;BME280;50094;51.356;-0.196;2022-10-17T00:15:02;100198.06;;;29.13;44.64
63916;BME280;50094;51.356;-0.196;2022-10-17T00:17:31;100190.33;;;29.14;44.54
63916;BME280;50094;51.356;-0.196;2022-10-17T00:19:58;100186.49;;;29.13;44.68
63916;BME280;50094;51.356;-0.196;2022-10-17T00:22:26;100200.65;;;29.17;44.56
63916;BME280;50094;51.356;-0.196;2022-10-17T00:24:54;100211.47;;;29.19;44.44
63916;BME280;50094;51.356;-0.196;2022-10-17T00:27:21;100211.43;;;29.22;44.30
63916;BME280;50094;51.356;-0.196;2022-10-17T00:29:49;100214.32;;;28.95;44.31
63916;BME280;50094;51.356;-0.196;2022-10-17T00:32:17;100217.91;;;29.34;44.27
63916;BME280;50094;51.356;-0.196;2022-10-17T00:34:45;100228.47;;;29.19;44.44
63916;BME280;50094;51.356;-0.196;2022-10-17T00:37:12;100228.13;;;29.15;44.40
63916;BME280;50094;51.356;-0.196;2022-10-17T00:39:40;100226.86;;;29.19;44.25
63916;BME280;50094;51.356;-0.196;2022-10-17T00:42:10;100234.40;;;29.31;44.00
63916;BME280;50094;51.356;-0.196;2022-10-17T00:45:18;100246.46;;;29.29;43.95
63916;BME280;50094;51.356;-0.196;2022-10-17T00:47:48;100253.66;;;29.37;43.57
63916;BME280;50094;51.356;-0.196;2022-10-17T00:50:18;100252.83;;;29.38;43.78
63916;BME280;50094;51.356;-0.196;2022-10-17T00:52:46;100257.70;;;29.30;43.90
63916;BME280;50094;51.356;-0.196;2022-10-17T00:55:20;100257.83;;;29.35;43.79
63916;BME280;50094;51.356;-0.196;2022-10-17T00:57:49;100250.54;;;29.37;43.83
63916;BME280;50094;51.356;-0.196;2022-10-17T01:00:18;100249.30;;;29.37;43.64
63916;BME280;50094;51.356;-0.196;2022-10-17T01:02:45;100253.12;;;29.12;43.50
63916;BME280;50094;51.356;-0.196;2022-10-17T01:05:14;100261.73;;;29.46;43.14
63916;BME280;50094;51.356;-0.196;2022-10-17T01:07:44;100267.80;;;29.27;43.10
63916;BME280;50094;51.356;-0.196;2022-10-17T01:10:13;100276.32;;;29.50;43.27
63916;BME280;50094;51.356;-0.196;2022-10-17T01:12:47;100272.29;;;29.46;43.46
63916;BME280;50094;51.356;-0.196;2022-10-17T01:15:26;100271.22;;;29.29;43.11
63916;BME280;50094;51.356;-0.196;2022-10-17T01:18:06;100266.13;;;29.52;43.11
63916;BME280;50094;51.356;-0.196;2022-10-17T01:21:11;100266.13;;;29.57;43.05
63916;BME280;50094;51.356;-0.196;2022-10-17T01:24:17;100260.50;;;29.32;42.91
63916;BME280;50094;51.356;-0.196;2022-10-17T01:27:04;100263.33;;;29.65;42.70
63916;BME280;50094;51.356;-0.196;2022-10-17T01:29:51;100272.35;;;29.58;42.85
63916;BME280;50094;51.356;-0.196;2022-10-17T01:32:26;100277.80;;;29.34;42.38
63916;BME280;50094;51.356;-0.196;2022-10-17T01:35:00;100280.36;;;29.56;42.55
63916;BME280;50094;51.356;-0.196;2022-10-17T01:37:33;100282.44;;;29.58;42.45
63916;BME280;50094;51.356;-0.196;2022-10-17T01:40:10;100283.31;;;29.28;42.51
63916;BME280;50094;51.356;-0.196;2022-10-17T01:42:49;100294.42;;;29.37;42.46
63916;BME280;50094;51.356;-0.196;2022-10-17T01:45:22;100298.56;;;29.61;42.35
63916;BME280;50094;51.356;-0.196;2022-10-17T01:47:53;100298.24;;;29.66;42.22
63916;BME280;50094;51.356;-0.196;2022-10-17T01:50:27;100300.98;;;29.41;42.23
63916;BME280;50094;51.356;-0.196;2022-10-17T01:53:00;100307.60;;;29.72;42.09
63916;BME280;50094;51.356;-0.196;2022-10-17T01:55:31;100313.09;;;29.72;42.03
63916;BME280;50094;51.356;-0.196;2022-10-17T01:58:02;100312.46;;;29.44;42.01
63916;BME280;50094;51.356;-0.196;2022-10-17T02:00:34;100308.28;;;29.50;41.92
63916;BME280;50094;51.356;-0.196;2022-10-17T02:03:05;100314.97;;;29.49;42.03
63916;BME280;50094;51.356;-0.196;2022-10-17T02:05:38;100322.76;;;29.67;42.13
63916;BME280;50094;51.356;-0.196;2022-10-17T02:08:06;100325.93;;;29.33;42.10
63916;BME280;50094;51.356;-0.196;2022-10-17T02:10:38;100325.51;;;29.40;41.98
63916;BME280;50094;51.356;-0.196;2022-10-17T02:13:16;100326.84;;;29.70;41.78
63916;BME280;50094;51.356;-0.196;2022-10-17T02:15:58;100333.31;;;29.52;41.82
63916;BME280;50094;51.356;-0.196;2022-10-17T02:18:45;100331.37;;;29.76;41.68
63916;BME280;50094;51.356;-0.196;2022-10-17T02:21:19;100332.30;;;29.55;41.66
63916;BME280;50094;51.356;-0.196;2022-10-17T02:23:54;100335.56;;;29.88;41.37
63916;BME280;50094;51.356;-0.196;2022-10-17T02:26:28;100344.86;;;29.59;41.36
63916;BME280;50094;51.356;-0.196;2022-10-17T02:29:03;100341.46;;;29.88;41.23
63916;BME280;50094;51.356;-0.196;2022-10-17T02:31:38;100356.59;;;29.54;41.36
63916;BME280;50094;51.356;-0.196;2022-10-17T02:34:12;100356.75;;;29.55;41.34
63916;BME280;50094;51.356;-0.196;2022-10-17T02:36:46;100357.35;;;29.86;41.25
63916;BME280;50094;51.356;-0.196;2022-10-17T02:39:15;100349.85;;;29.81;41.32
63916;BME280;50094;51.356;-0.196;2022-10-17T02:41:43;100349.61;;;29.65;41.08
63916;BME280;50094;51.356;-0.196;2022-10-17T02:44:11;100337.04;;;29.67;40.94
63916;BME280;50094;51.356;-0.196;2022-10-17T02:46:40;100315.39;;;29.97;40.93
63916;BME280;50094;51.356;-0.196;2022-10-17T02:49:15;100308.35;;;29.73;40.84
63916;BME280;50094;51.356;-0.196;2022-10-17T02:51:46;100299.68;;;29.65;40.94
63916;BME280;50094;51.356;-0.196;2022-10-17T02:54:23;100297.45;;;29.76;40.77
63916;BME280;50094;51.356;-0.196;2022-10-17T02:56:59;100323.20;;;29.79;40.69
63916;BME280;50094;51.356;-0.196;2022-10-17T02:59:31;100319.73;;;29.54;40.61
63916;BME280;50094;51.356;-0.196;2022-10-17T03:02:02;100307.82;;;30.13;40.50
63916;BME280;50094;51.356;-0.196;2022-10-17T03:04:29;100307.94;;;29.84;40.45
63916;BME280;50094;51.356;-0.196;2022-10-17T03:06:57;100321.31;;;29.77;40.55
63916;BME280;50094;51.356;-0.196;2022-10-17T03:09:24;100316.38;;;29.79;40.56
63916;BME280;50094;51.356;-0.196;2022-10-17T03:11:52;100326.89;;;29.92;40.36
63916;BME280;50094;51.356;-0.196;2022-10-17T03:14:20;100326.21;;;29.84;40.39
63916;BME280;50094;51.356;-0.196;2022-10-17T03:16:47;100331.93;;;29.83;40.38
63916;BME280;50094;51.356;-0.196;2022-10-17T03:19:15;100332.63;;;29.56;40.40
63916;BME280;50094;51.356;-0.196;2022-10-17T03:21:42;100323.78;;;29.79;40.24
63916;BME280;50094;51.356;-0.196;2022-10-17T03:24:10;100317.42;;;29.87;40.15
63916;BME280;50094;51.356;-0.196;2022-10-17T03:26:37;100311.20;;;29.77;40.38
63916;BME280;50094;51.356;-0.196;2022-10-17T03:29:05;100300.50;;;29.65;40.14
63916;BME280;50094;51.356;-0.196;2022-10-17T03:31:32;100303.14;;;29.68;40.04
63916;BME280;50094;51.356;-0.196;2022-10-17T03:34:01;100304.23;;;29.91;40.02
63916;BME280;50094;51.356;-0.196;2022-10-17T03:36:28;100321.07;;;29.87;40.06
63916;BME280;50094;51.356;-0.196;2022-10-17T03:38:56;100328.27;;;29.87;39.97
63916;BME280;50094;51.356;-0.196;2022-10-17T03:41:24;100340.59;;;30.12;40.01
63916;BME280;50094;51.356;-0.196;2022-10-17T03:43:51;100342.43;;;29.88;39.98
63916;BME280;50094;51.356;-0.196;2022-10-17T03:46:18;100346.97;;;29.97;39.76
63916;BME280;50094;51.356;-0.196;2022-10-17T03:48:46;100350.88;;;30.25;39.72
63916;BME280;50094;51.356;-0.196;2022-10-17T03:51:14;100342.60;;;29.99;39.65
63916;BME280;50094;51.356;-0.196;2022-10-17T03:53:41;100343.32;;;29.75;39.52
63916;BME280;50094;51.356;-0.196;2022-10-17T03:56:10;100349.43;;;29.91;39.54
63916;BME280;50094;51.356;-0.196;2022-10-17T03:58:38;100352.72;;;30.15;39.57
63916;BME280;50094;51.356;-0.196;2022-10-17T04:01:07;100355.98;;;29.68;39.51
63916;BME280;50094;51.356;-0.196;2022-10-17T04:03:35;100346.61;;;29.90;39.65
63916;BME280;50094;51.356;-0.196;2022-10-17T04:06:03;100348.05;;;29.74;39.49
63916;BME280;50094;51.356;-0.196;2022-10-17T04:08:32;100340.15;;;29.91;39.54
63916;BME280;50094;51.356;-0.196;2022-10-17T04:11:00;100342.78;;;29.94;39.47
63916;BME280;50094;51.356;-0.196;2022-10-17T04:13:28;100352.74;;;29.98;39.43
63916;BME280;50094;51.356;-0.196;2022-10-17T04:15:58;100361.86;;;29.77;39.45
63916;BME280;50094;51.356;-0.196;2022-10-17T04:18:26;100366.25;;;29.75;39.48
63916;BME280;50094;51.356;-0.196;2022-10-17T04:20:53;100365.64;;;30.01;39.46
63916;BME280;50094;51.356;-0.196;2022-10-17T04:23:21;100365.81;;;29.98;39.41
63916;BME280;50094;51.356;-0.196;2022-10-17T04:25:49;100366.02;;;29.76;39.42
63916;BME280;50094;51.356;-0.196;2022-10-17T04:28:17;100363.40;;;29.80;39.20
63916;BME280;50094;51.356;-0.196;2022-10-17T04:30:44;100359.40;;;30.10;39.13
63916;BME280;50094;51.356;-0.196;2022-10-17T04:33:11;100346.75;;;30.17;38.97
63916;BME280;50094;51.356;-0.196;2022-10-17T04:35:39;100349.32;;;30.18;38.90
63916;BME280;50094;51.356;-0.196;2022-10-17T04:38:06;100359.08;;;29.92;38.94
63916;BME280;50094;51.356;-0.196;2022-10-17T04:40:35;100372.91;;;30.17;38.94
63916;BME280;50094;51.356;-0.196;2022-10-17T04:43:02;100372.20;;;30.12;39.04
63916;BME280;50094;51.356;-0.196;2022-10-17T04:45:30;100378.47;;;29.90;39.06
63916;BME280;50094;51.356;-0.196;2022-10-17T04:47:57;100381.90;;;29.92;39.00
63916;BME280;50094;51.356;-0.196;2022-10-17T04:50:25;100392.95;;;30.16;39.00
63916;BME280;50094;51.356;-0.196;2022-10-17T04:52:53;100389.13;;;29.95;39.05
63916;BME280;50094;51.356;-0.196;2022-10-17T04:55:20;100397.39;;;30.26;38.96
63916;BME280;50094;51.356;-0.196;2022-10-17T04:57:48;100392.17;;;30.07;38.89
63916;BME280;50094;51.356;-0.196;2022-10-17T05:00:16;100391.10;;;30.07;38.82
63916;BME280;50094;51.356;-0.196;2022-10-17T05:02:43;100397.72;;;30.07;38.82
63916;BME280;50094;51.356;-0.196;2022-10-17T05:05:11;100397.16;;;30.35;38.82
63916;BME280;50094;51.356;-0.196;2022-10-17T05:07:39;100392.91;;;30.18;38.71
63916;BME280;50094;51.356;-0.196;2022-10-17T05:10:07;100403.69;;;30.20;38.76
63916;BME280;50094;51.356;-0.196;2022-10-17T05:12:34;100412.36;;;30.48;38.74
63916;BME280;50094;51.356;-0.196;2022-10-17T05:15:02;100413.82;;;30.32;38.64
63916;BME280;50094;51.356;-0.196;2022-10-17T05:17:29;100417.60;;;30.31;38.65
63916;BME280;50094;51.356;-0.196;2022-10-17T05:19:57;100433.60;;;30.35;38.60
63916;BME280;50094;51.356;-0.196;2022-10-17T05:22:25;100461.30;;;30.40;38.54
63916;BME280;50094;51.356;-0.196;2022-10-17T05:24:52;100467.18;;;30.38;38.51
63916;BME280;50094;51.356;-0.196;2022-10-17T05:27:20;100467.16;;;30.48;38.43
63916;BME280;50094;51.356;-0.196;2022-10-17T05:29:47;100470.38;;;30.48;38.36
63916;BME280;50094;51.356;-0.196;2022-10-17T05:32:15;100472.66;;;30.36;38.49
63916;BME280;50094;51.356;-0.196;2022-10-17T05:34:42;100474.03;;;30.14;38.57
63916;BME280;50094;51.356;-0.196;2022-10-17T05:37:10;100478.07;;;30.53;38.16
63916;BME280;50094;51.356;-0.196;2022-10-17T05:39:37;100490.10;;;30.60;37.92
63916;BME280;50094;51.356;-0.196;2022-10-17T05:42:06;100489.62;;;30.47;37.85
63916;BME280;50094;51.356;-0.196;2022-10-17T05:44:34;100491.24;;;30.56;37.71
63916;BME280;50094;51.356;-0.196;2022-10-17T05:47:01;100487.79;;;30.41;37.65
63916;BME280;50094;51.356;-0.196;2022-10-17T05:49:29;100505.42;;;30.25;37.62
63916;BME280;50094;51.356;-0.196;2022-10-17T05:51:56;100515.31;;;30.04;37.64
63916;BME280;50094;51.356;-0.196;2022-10-17T05:54:24;100505.14;;;30.19;37.54
63916;BME280;50094;51.356;-0.196;2022-10-17T05:56:52;100511.97;;;29.84;37.45
63916;BME280;50094;51.356;-0.196;2022-10-17T05:59:20;100526.12;;;29.70;37.53
63916;BME280;50094;51.356;-0.196;2022-10-17T06:01:48;100521.68;;;29.60;37.55
63916;BME280;50094;51.356;-0.196;2022-10-17T06:04:16;100517.74;;;29.78;37.52
63916;BME280;50094;51.356;-0.196;2022-10-17T06:06:43;100529.73;;;29.74;37.51
63916;BME280;50094;51.356;-0.196;2022-10-17T06:09:11;100534.43;;;29.63;37.60
63916;BME280;50094;51.356;-0.196;2022-10-17T06:11:38;100548.54;;;29.55;37.63
63916;BME280;50094;51.356;-0.196;2022-10-17T06:14:06;100558.16;;;29.20;37.64
63916;BME280;50094;51.356;-0.196;2022-10-17T06:16:33;100556.81;;;29.37;37.64
63916;BME280;50094;51.356;-0.196;2022-10-17T06:19:01;100544.61;;;29.33;37.60
63916;BME280;50094;51.356;-0.196;2022-10-17T06:21:29;100553.45;;;29.37;37.54
63916;BME280;50094;51.356;-0.196;2022-10-17T06:23:56;100561.00;;;29.67;37.63
63916;BME280;50094;51.356;-0.196;2022-10-17T06:26:24;100557.29;;;29.09;37.75
63916;BME280;50094;51.356;-0.196;2022-10-17T06:28:53;100566.28;;;29.01;37.77
63916;BME280;50094;51.356;-0.196;2022-10-17T06:31:21;100564.52;;;29.36;37.89
63916;BME280;50094;51.356;-0.196;2022-10-17T06:33:48;100570.43;;;29.06;37.87
63916;BME280;50094;51.356;-0.196;2022-10-17T06:36:16;100574.09;;;28.81;37.89
63916;BME280;50094;51.356;-0.196;2022-10-17T06:38:44;100584.73;;;29.20;37.91
63916;BME280;50094;51.356;-0.196;2022-10-17T06:41:13;100582.70;;;29.11;38.01
63916;BME280;50094;51.356;-0.196;2022-10-17T06:43:42;100577.05;;;29.11;37.94
63916;BME280;50094;51.356;-0.196;2022-10-17T06:46:10;100583.14;;;29.08;37.99
63916;BME280;50094;51.356;-0.196;2022-10-17T06:48:38;100587.46;;;28.84;37.99
63916;BME280;50094;51.356;-0.196;2022-10-17T06:51:06;100597.40;;;28.82;37.99
63916;BME280;50094;51.356;-0.196;2022-10-17T06:53:34;100607.22;;;28.80;37.99
63916;BME280;50094;51.356;-0.196;2022-10-17T06:56:02;100604.76;;;28.78;37.99
63916;BME280;50094;51.356;-0.196;2022-10-17T06:58:32;100603.56;;;28.53;37.98
63916;BME280;50094;51.356;-0.196;2022-10-17T07:01:00;100605.19;;;28.71;38.03
63916;BME280;50094;51.356;-0.196;2022-10-17T07:03:28;100607.65;;;29.01;37.93
63916;BME280;50094;51.356;-0.196;2022-10-17T07:05:56;100619.64;;;28.95;37.93
63916;BME280;50094;51.356;-0.196;2022-10-17T07:08:23;100627.42;;;28.54;37.83
63916;BME280;50094;51.356;-0.196;2022-10-17T07:10:51;100631.74;;;28.55;37.81
63916;BME280;50094;51.356;-0.196;2022-10-17T07:13:19;100635.71;;;28.98;37.79
63916;BME280;50094;51.356;-0.196;2022-10-17T07:15:46;100641.42;;;28.74;37.80
63916;BME280;50094;51.356;-0.196;2022-10-17T07:18:13;100659.39;;;28.93;37.79
63916;BME280;50094;51.356;-0.196;2022-10-17T07:20:41;100674.84;;;28.71;37.76
63916;BME280;50094;51.356;-0.196;2022-10-17T07:23:09;100693.56;;;28.46;37.71
63916;BME280;50094;51.356;-0.196;2022-10-17T07:25:36;100703.05;;;28.43;37.73
63916;BME280;50094;51.356;-0.196;2022-10-17T07:28:04;100705.32;;;28.37;37.72
63916;BME280;50094;51.356;-0.196;2022-10-17T07:30:32;100706.02;;;28.80;37.70
63916;BME280;50094;51.356;-0.196;2022-10-17T07:32:59;100708.62;;;28.57;37.68
63916;BME280;50094;51.356;-0.196;2022-10-17T07:35:27;100710.41;;;28.78;37.69
63916;BME280;50094;51.356;-0.196;2022-10-17T07:37:54;100721.27;;;28.74;37.69
63916;BME280;50094;51.356;-0.196;2022-10-17T07:40:22;100725.40;;;28.32;37.68
63916;BME280;50094;51.356;-0.196;2022-10-17T07:42:50;100728.73;;;28.46;37.75
63916;BME280;50094;51.356;-0.196;2022-10-17T07:45:17;100737.52;;;28.69;37.74
63916;BME280;50094;51.356;-0.196;2022-10-17T07:47:45;100739.09;;;28.61;37.77
63916;BME280;50094;51.356;-0.196;2022-10-17T07:50:13;100737.43;;;28.58;37.80
63916;BME280;50094;51.356;-0.196;2022-10-17T07:52:40;100745.69;;;28.38;37.79
63916;BME280;50094;51.356;-0.196;2022-10-17T07:55:08;100752.89;;;28.38;37.78
63916;BME280;50094;51.356;-0.196;2022-10-17T07:57:36;100746.74;;;28.55;37.81
63916;BME280;50094;51.356;-0.196;2022-10-17T08:00:04;100754.30;;;28.25;37.90
63916;BME280;50094;51.356;-0.196;2022-10-17T08:02:32;100768.41;;;28.04;37.84
63916;BME280;50094;51.356;-0.196;2022-10-17T08:04:59;100772.89;;;28.23;37.86
63916;BME280;50094;51.356;-0.196;2022-10-17T08:07:28;100776.51;;;28.43;37.88
63916;BME280;50094;51.356;-0.196;2022-10-17T08:09:56;100786.44;;;28.15;37.91
63916;BME280;50094;51.356;-0.196;2022-10-17T08:12:24;100787.90;;;28.34;37.97
63916;BME280;50094;51.356;-0.196;2022-10-17T08:14:51;100784.60;;;28.59;37.97
63916;BME280;50094;51.356;-0.196;2022-10-17T08:17:20;100780.40;;;28.56;37.96
63916;BME280;50094;51.356;-0.196;2022-10-17T08:19:47;100789.28;;;28.33;37.94
63916;BME280;50094;51.356;-0.196;2022-10-17T08:22:14;100797.70;;;28.33;37.92
63916;BME280;50094;51.356;-0.196;2022-10-17T08:24:42;100801.97;;;28.30;37.93
63916;BME280;50094;51.356;-0.196;2022-10-17T08:27:10;100807.48;;;28.23;37.99
63916;BME280;50094;51.356;-0.196;2022-10-17T08:29:38;100811.92;;;28.23;37.98
63916;BME280;50094;51.356;-0.196;2022-10-17T08:32:06;100814.43;;;28.16;38.05
63916;BME280;50094;51.356;-0.196;2022-10-17T08:34:34;100820.69;;;28.19;38.03
63916;BME280;50094;51.356;-0.196;2022-10-17T08:37:01;100824.11;;;28.20;37.99
63916;BME280;50094;51.356;-0.196;2022-10-17T08:39:29;100835.93;;;27.99;37.96
63916;BME280;50094;51.356;-0.196;2022-10-17T08:42:05;100838.08;;;28.18;37.96
63916;BME280;50094;51.356;-0.196;2022-10-17T08:44:47;100839.86;;;28.11;38.03
63916;BME280;50094;51.356;-0.196;2022-10-17T08:47:26;100850.54;;;28.55;38.12
63916;BME280;50094;51.356;-0.196;2022-10-17T08:49:56;100861.30;;;28.05;38.12
63916;BME280;50094;51.356;-0.196;2022-10-17T08:52:32;100865.49;;;28.03;38.13
63916;BME280;50094;51.356;-0.196;2022-10-17T08:55:14;100868.64;;;27.98;38.18
63916;BME280;50094;51.356;-0.196;2022-10-17T08:57:42;100870.83;;;28.28;38.14
63916;BME280;50094;51.356;-0.196;2022-10-17T09:00:16;100873.72;;;28.08;38.10
63916;BME280;50094;51.356;-0.196;2022-10-17T09:02:53;100870.89;;;28.07;38.10
63916;BME280;50094;51.356;-0.196;2022-10-17T09:05:33;100873.30;;;28.04;38.10
63916;BME280;50094;51.356;-0.196;2022-10-17T09:08:11;100875.66;;;28.06;38.09
63916;BME280;50094;51.356;-0.196;2022-10-17T09:10:50;100877.35;;;28.04;38.09
63916;BME280;50094;51.356;-0.196;2022-10-17T09:13:29;100882.48;;;28.05;38.09
63916;BME280;50094;51.356;-0.196;2022-10-17T09:16:17;100888.50;;;28.02;38.11
63916;BME280;50094;51.356;-0.196;2022-10-17T09:18:57;100904.10;;;28.09;37.96
63916;BME280;50094;51.356;-0.196;2022-10-17T09:21:38;100913.45;;;28.11;37.95
63916;BME280;50094;51.356;-0.196;2022-10-17T09:24:12;100913.85;;;28.06;38.00
63916;BME280;50094;51.356;-0.196;2022-10-17T09:26:41;100914.69;;;28.00;38.05
63916;BME280;50094;51.356;-0.196;2022-10-17T09:29:18;100919.53;;;27.99;38.07
63916;BME280;50094;51.356;-0.196;2022-10-17T09:31:52;100922.52;;;28.03;38.01
63916;BME280;50094;51.356;-0.196;2022-10-17T09:34:22;100920.76;;;27.97;38.07
63916;BME280;50094;51.356;-0.196;2022-10-17T09:36:51;100923.90;;;28.19;38.11
63916;BME280;50094;51.356;-0.196;2022-10-17T09:39:22;100930.55;;;28.40;38.12
63916;BME280;50094;51.356;-0.196;2022-10-17T09:41:52;100933.01;;;28.12;38.18
63916;BME280;50094;51.356;-0.196;2022-10-17T09:44:21;100937.92;;;27.87;38.19
63916;BME280;50094;51.356;-0.196;2022-10-17T09:47:00;100942.44;;;28.07;38.14
63916;BME280;50094;51.356;-0.196;2022-10-17T09:49:32;100946.82;;;27.82;38.14
63916;BME280;50094;51.356;-0.196;2022-10-17T09:52:02;100951.16;;;27.82;38.14
63916;BME280;50094;51.356;-0.196;2022-10-17T09:54:39;100961.63;;;27.67;38.11
63916;BME280;50094;51.356;-0.196;2022-10-17T09:57:09;100964.57;;;28.17;38.08
63916;BME280;50094;51.356;-0.196;2022-10-17T09:59:39;100969.23;;;28.19;38.04
63916;BME280;50094;51.356;-0.196;2022-10-17T10:02:12;100967.86;;;27.82;38.04
63916;BME280;50094;51.356;-0.196;2022-10-17T10:04:52;100980.75;;;27.99;37.93
63916;BME280;50094;51.356;-0.196;2022-10-17T10:07:20;100991.33;;;27.95;37.96
63916;BME280;50094;51.356;-0.196;2022-10-17T10:09:48;100991.89;;;27.92;38.01
63916;BME280;50094;51.356;-0.196;2022-10-17T10:12:19;100996.23;;;27.93;37.97
63916;BME280;50094;51.356;-0.196;2022-10-17T10:14:47;100997.42;;;27.87;38.02
63916;BME280;50094;51.356;-0.196;2022-10-17T10:17:46;101001.58;;;27.85;37.98
63916;BME280;50094;51.356;-0.196;2022-10-17T10:20:33;101003.80;;;28.12;38.00
63916;BME280;50094;51.356;-0.196;2022-10-17T10:23:17;101004.08;;;28.13;38.02
63916;BME280;50094;51.356;-0.196;2022-10-17T10:25:51;101010.26;;;27.86;38.02
63916;BME280;50094;51.356;-0.196;2022-10-17T10:28:19;101013.95;;;27.82;37.98
63916;BME280;50094;51.356;-0.196;2022-10-17T10:30:50;101018.00;;;28.13;37.98
63916;BME280;50094;51.356;-0.196;2022-10-17T10:33:19;101020.46;;;27.81;37.88
63916;BME280;50094;51.356;-0.196;2022-10-17T10:35:54;101017.73;;;28.19;37.66
63916;BME280;50094;51.356;-0.196;2022-10-17T10:38:23;101021.71;;;27.58;37.47
63916;BME280;50094;51.356;-0.196;2022-10-17T10:40:52;101024.65;;;27.57;37.41
63916;BME280;50094;51.356;-0.196;2022-10-17T10:43:34;101026.66;;;28.06;37.49
63916;BME280;50094;51.356;-0.196;2022-10-17T10:46:15;101030.63;;;27.78;37.38
63916;BME280;50094;51.356;-0.196;2022-10-17T10:48:50;101031.10;;;27.72;37.18
63916;BME280;50094;51.356;-0.196;2022-10-17T10:51:20;101034.52;;;27.63;37.21
63916;BME280;50094;51.356;-0.196;2022-10-17T10:53:54;101042.51;;;27.57;37.34
63916;BME280;50094;51.356;-0.196;2022-10-17T10:56:28;101052.27;;;27.54;37.35
63916;BME280;50094;51.356;-0.196;2022-10-17T10:59:02;101059.94;;;27.73;37.31
63916;BME280;50094;51.356;-0.196;2022-10-17T11:01:34;101070.40;;;27.67;37.15
63916;BME280;50094;51.356;-0.196;2022-10-17T11:04:18;101075.31;;;27.13;37.41
63916;BME280;50094;51.356;-0.196;2022-10-17T11:06:50;101079.46;;;27.57;37.31
63916;BME280;50094;51.356;-0.196;2022-10-17T11:09:27;101079.74;;;27.39;37.17
63916;BME280;50094;51.356;-0.196;2022-10-17T11:12:00;101088.35;;;27.56;37.17
63916;BME280;50094;51.356;-0.196;2022-10-17T11:14:42;101097.41;;;27.59;37.20
63916;BME280;50094;51.356;-0.196;2022-10-17T11:17:21;101098.12;;;27.60;37.10
63916;BME280;50094;51.356;-0.196;2022-10-17T11:19:58;101098.14;;;27.52;37.07
63916;BME280;50094;51.356;-0.196;2022-10-17T11:22:30;101100.23;;;27.49;36.88
63916;BME280;50094;51.356;-0.196;2022-10-17T11:25:03;101108.34;;;27.26;36.82
63916;BME280;50094;51.356;-0.196;2022-10-17T11:27:33;101112.43;;;27.22;36.94
63916;BME280;50094;51.356;-0.196;2022-10-17T11:30:02;101111.22;;;27.28;36.71
63916;BME280;50094;51.356;-0.196;2022-10-17T11:32:35;101110.19;;;27.16;36.96
63916;BME280;50094;51.356;-0.196;2022-10-17T11:35:13;101111.54;;;27.26;37.10
63916;BME280;50094;51.356;-0.196;2022-10-17T11:37:46;101120.06;;;27.29;37.36
63916;BME280;50094;51.356;-0.196;2022-10-17T11:40:17;101123.39;;;27.51;37.37
63916;BME280;50094;51.356;-0.196;2022-10-17T11:42:52;101131.30;;;27.58;37.42
63916;BME280;50094;51.356;-0.196;2022-10-17T11:45:22;101133.27;;;27.66;37.39
63916;BME280;50094;51.356;-0.196;2022-10-17T11:47:57;101131.14;;;27.70;37.37
63916;BME280;50094;51.356;-0.196;2022-10-17T11:50:28;101137.54;;;27.70;37.46
63916;BME280;50094;51.356;-0.196;2022-10-17T11:53:00;101142.20;;;27.75;37.46
63916;BME280;50094;51.356;-0.196;2022-10-17T11:55:31;101146.38;;;27.61;37.37
63916;BME280;50094;51.356;-0.196;2022-10-17T11:58:12;101146.79;;;27.74;37.21
63916;BME280;50094;51.356;-0.196;2022-10-17T12:00:51;101149.92;;;27.32;37.12
63916;BME280;50094;51.356;-0.196;2022-10-17T12:03:31;101151.29;;;27.53;37.01
63916;BME280;50094;51.356;-0.196;2022-10-17T12:06:10;101152.23;;;27.55;37.12
63916;BME280;50094;51.356;-0.196;2022-10-17T12:08:43;101155.61;;;27.77;37.17
63916;BME280;50094;51.356;-0.196;2022-10-17T12:11:22;101153.33;;;27.56;37.14
63916;BME280;50094;51.356;-0.196;2022-10-17T12:13:53;101157.59;;;27.20;37.10
63916;BME280;50094;51.356;-0.196;2022-10-17T12:16:53;101156.78;;;27.26;37.11
63916;BME280;50094;51.356;-0.196;2022-10-17T12:19:29;101156.60;;;27.44;36.95
63916;BME280;50094;51.356;-0.196;2022-10-17T12:22:01;101155.89;;;27.47;36.97
63916;BME280;50094;51.356;-0.196;2022-10-17T12:24:35;101152.66;;;27.51;36.88
63916;BME280;50094;51.356;-0.196;2022-10-17T12:27:40;101152.84;;;27.27;36.90
63916;BME280;50094;51.356;-0.196;2022-10-17T12:30:22;101155.17;;;27.54;36.96
63916;BME280;50094;51.356;-0.196;2022-10-17T12:33:02;101155.18;;;27.52;37.03
63916;BME280;50094;51.356;-0.196;2022-10-17T12:35:31;101161.21;;;27.70;37.00
63916;BME280;50094;51.356;-0.196;2022-10-17T12:38:19;101159.44;;;27.52;37.03
63916;BME280;50094;51.356;-0.196;2022-10-17T12:40:50;101159.68;;;27.17;36.94
63916;BME280;50094;51.356;-0.196;2022-10-17T12:43:55;101162.32;;;27.52;36.97
63916;BME280;50094;51.356;-0.196;2022-10-17T12:46:46;101163.61;;;27.57;36.97
63916;BME280;50094;51.356;-0.196;2022-10-17T12:49:40;101162.26;;;27.53;36.99
63916;BME280;50094;51.356;-0.196;2022-10-17T12:52:19;101167.43;;;27.63;36.91
63916;BME280;50094;51.356;-0.196;2022-10-17T12:54:52;101166.60;;;27.81;36.88
63916;BME280;50094;51.356;-0.196;2022-10-17T12:57:25;101165.04;;;27.21;36.82
63916;BME280;50094;51.356;-0.196;2022-10-17T12:59:56;101164.31;;;27.54;36.91
63916;BME280;50094;51.356;-0.196;2022-10-17T13:02:25;101165.72;;;27.56;36.89